Time;durP1;ratioP1;P1;durP2;ratioP2;P2;SDS_P1;SDS_P2;PMS_P1;PMS_P2;Temp;Humidity;BMP_temperature;BMP_pressure;BME280_temperature;BME280_humidity;BME280_pressure;Samples;Min_cycle;Max_cycle;Signal;HPM_P1;HPM_P2
2024/02/23 00:02:13;;;;;;;14.00;7.40;;;;;;;8.69;61.30;97993.39;105238;1266;61178;-27
2024/02/23 00:04:41;;;;;;;13.00;7.30;;;;;;;8.85;60.38;97994.01;105262;1265;61170;-27
2024/02/23 00:07:08;;;;;;;9.10;6.30;;;;;;;8.89;60.04;97993.29;105188;1263;72206;-27
2024/02/23 00:09:35;;;;;;;16.40;8.70;;;;;;;8.74;60.30;97992.81;105197;1263;74310;-26
2024/02/23 00:12:03;;;;;;;11.00;7.10;;;;;;;8.58;60.75;97995.21;105231;1264;72343;-26
2024/02/23 00:14:50;;;;;;;14.10;8.70;;;;;;;8.37;61.29;97990.11;105168;1267;61119;-27
2024/02/23 00:17:18;;;;;;;12.80;6.60;;;;;;;8.14;61.87;97994.58;105518;1263;61068;-27
2024/02/23 00:19:46;;;;;;;11.20;6.50;;;;;;;8.30;62.11;97986.96;105502;1260;72997;-27
2024/02/23 00:22:13;;;;;;;12.50;7.10;;;;;;;8.81;60.48;97988.34;105292;1266;74593;-27
2024/02/23 00:24:40;;;;;;;11.30;6.40;;;;;;;8.90;59.84;97982.88;105509;1260;72668;-26
2024/02/23 00:27:07;;;;;;;11.20;7.40;;;;;;;8.74;59.85;97983.45;105449;1259;61080;-27
2024/02/23 00:29:35;;;;;;;10.60;6.50;;;;;;;8.50;60.61;97978.30;105493;1258;61093;-25
2024/02/23 00:32:03;;;;;;;10.90;7.60;;;;;;;8.38;60.97;97981.39;105472;1260;72981;-27
2024/02/23 00:34:31;;;;;;;10.10;7.10;;;;;;;8.19;61.45;97981.02;105057;1261;74359;-27
2024/02/23 00:36:59;;;;;;;12.30;6.20;;;;;;;7.99;62.12;97978.94;105302;1261;73012;-27
2024/02/23 00:39:26;;;;;;;11.00;6.60;;;;;;;8.25;61.83;97980.33;105492;1259;61059;-27
2024/02/23 00:41:53;;;;;;;11.60;7.10;;;;;;;8.72;60.29;97976.64;105262;1263;61310;-27
2024/02/23 00:44:20;;;;;;;12.00;7.20;;;;;;;8.73;59.87;97978.27;105421;1260;72875;-25
2024/02/23 00:46:47;;;;;;;11.20;6.50;;;;;;;8.68;60.03;97977.40;105260;1261;74391;-25
2024/02/23 00:49:14;;;;;;;14.40;8.40;;;;;;;8.46;60.33;97980.17;105237;1260;72377;-25
2024/02/23 00:51:41;;;;;;;12.70;7.80;;;;;;;8.25;61.16;97981.56;105092;1258;61038;-25
2024/02/23 00:54:08;;;;;;;12.70;7.50;;;;;;;8.07;61.84;97978.45;105221;1263;61058;-25
2024/02/23 00:56:35;;;;;;;13.90;6.90;;;;;;;7.89;62.46;97977.40;105483;1260;73602;-25
2024/02/23 00:59:16;;;;;;;12.10;7.30;;;;;;;8.34;61.67;97979.46;105341;1261;74463;-25
2024/02/23 01:01:44;;;;;;;13.50;5.40;;;;;;;8.69;60.65;97981.62;105287;1264;72499;-25
2024/02/23 01:04:11;;;;;;;15.90;8.20;;;;;;;8.68;60.26;97978.98;105210;1260;61144;-25
2024/02/23 01:06:38;;;;;;;12.90;7.80;;;;;;;8.59;60.48;97970.80;105160;1263;61125;-25
2024/02/23 01:09:06;;;;;;;12.80;7.80;;;;;;;8.47;60.67;97973.90;105361;1263;72883;-25
2024/02/23 01:11:33;;;;;;;12.70;8.50;;;;;;;8.25;61.45;97971.83;105479;1260;74709;-25
2024/02/23 01:14:00;;;;;;;15.40;9.00;;;;;;;8.03;62.02;97971.18;105417;1257;72456;-25
2024/02/23 01:16:27;;;;;;;12.90;7.40;;;;;;;8.12;62.23;97972.98;105567;1257;61157;-25
2024/02/23 01:18:54;;;;;;;11.70;8.10;;;;;;;8.66;60.80;97977.74;105281;1257;61144;-25
2024/02/23 01:21:21;;;;;;;13.70;8.30;;;;;;;8.73;60.20;97976.40;105476;1257;72792;-25
2024/02/23 01:23:48;;;;;;;12.30;7.90;;;;;;;8.66;60.17;97974.24;105485;1258;74360;-25
2024/02/23 01:26:16;;;;;;;15.50;9.30;;;;;;;8.46;60.50;97973.14;105691;1257;72943;-25
2024/02/23 01:28:43;;;;;;;11.00;7.30;;;;;;;8.27;61.21;97968.55;105631;1259;61100;-25
2024/02/23 01:31:11;;;;;;;12.40;7.90;;;;;;;8.14;61.69;97968.11;105619;1257;61051;-25
2024/02/23 01:33:39;;;;;;;14.40;9.10;;;;;;;8.03;62.03;97965.26;105427;1257;72887;-26
2024/02/23 01:36:06;;;;;;;13.50;7.60;;;;;;;7.90;62.70;97958.98;105139;1258;74271;-25
2024/02/23 01:38:34;;;;;;;11.30;7.10;;;;;;;8.45;61.32;97961.41;105622;1258;72438;-25
2024/02/23 01:41:01;;;;;;;14.00;8.60;;;;;;;8.75;60.31;97960.30;105623;1257;61122;-25
2024/02/23 01:43:28;;;;;;;13.30;8.80;;;;;;;8.60;60.51;97957.86;105484;1260;61439;-25
2024/02/23 01:45:55;;;;;;;13.70;8.80;;;;;;;8.43;60.97;97957.98;105605;1257;73002;-25
2024/02/23 01:48:23;;;;;;;14.40;8.40;;;;;;;8.18;61.80;97956.74;105566;1258;74919;-25
2024/02/23 01:50:50;;;;;;;16.70;9.80;;;;;;;7.88;62.80;97949.71;105518;1257;73128;-25
2024/02/23 01:53:19;;;;;;;11.00;7.20;;;;;;;7.72;63.66;97952.95;105618;1256;61169;-25
2024/02/23 01:55:46;;;;;;;10.80;7.50;;;;;;;7.98;63.24;97947.06;105330;1257;61138;-25
2024/02/23 01:58:14;;;;;;;14.30;8.30;;;;;;;8.42;61.88;97950.25;105209;1256;72874;-25
2024/02/23 02:00:41;;;;;;;12.40;8.40;;;;;;;8.40;61.61;97945.60;105634;1259;74293;-26
2024/02/23 02:03:08;;;;;;;14.30;8.50;;;;;;;8.30;61.88;97947.71;105573;1258;72667;-25
2024/02/23 02:05:39;;;;;;;13.40;10.00;;;;;;;8.03;62.70;97948.71;105333;1258;61732;-25
2024/02/23 02:08:06;;;;;;;19.50;9.10;;;;;;;7.87;63.34;97946.45;105305;1256;61109;-25
2024/02/23 02:10:33;;;;;;;16.60;10.00;;;;;;;7.64;63.99;97947.04;105316;1257;72937;-25
2024/02/23 02:13:03;;;;;;;13.90;8.70;;;;;;;7.80;64.13;97946.40;105548;1254;74261;-25
2024/02/23 02:15:30;;;;;;;12.40;8.80;;;;;;;8.39;62.11;97952.76;105521;1254;72641;-25
2024/02/23 02:17:57;;;;;;;12.40;7.40;;;;;;;8.35;61.90;97952.11;105478;1254;61106;-25
2024/02/23 02:20:26;;;;;;;15.90;8.40;;;;;;;8.10;62.62;97941.30;105518;1258;61090;-25
2024/02/23 02:22:53;;;;;;;14.40;8.70;;;;;;;7.85;63.49;97939.91;105464;1254;71604;-25
2024/02/23 02:25:20;;;;;;;13.10;8.30;;;;;;;7.64;64.11;97933.11;105571;1255;74360;-25
2024/02/23 02:27:47;;;;;;;13.00;8.50;;;;;;;7.46;64.76;97934.59;105634;1254;73069;-25
2024/02/23 02:30:15;;;;;;;12.20;7.50;;;;;;;7.87;63.94;97936.95;105660;1254;61138;-25
2024/02/23 02:32:42;;;;;;;13.20;7.80;;;;;;;8.16;62.89;97935.62;105420;1256;61157;-25
2024/02/23 02:35:11;;;;;;;11.60;7.70;;;;;;;8.23;62.24;97933.85;105523;1254;73082;-25
2024/02/23 02:37:39;;;;;;;14.20;8.20;;;;;;;8.00;62.82;97930.16;105604;1254;72890;-25
2024/02/23 02:40:07;;;;;;;15.10;9.50;;;;;;;7.79;63.46;97930.70;105595;1254;72485;-25
2024/02/23 02:42:34;;;;;;;13.10;7.70;;;;;;;7.49;64.44;97929.50;105617;1260;61109;-25
2024/02/23 02:45:02;;;;;;;10.80;7.40;;;;;;;7.48;64.94;97929.07;105623;1260;61118;-25
2024/02/23 02:47:30;;;;;;;9.80;6.10;;;;;;;7.94;63.53;97927.92;105608;1254;72825;-25
2024/02/23 02:49:57;;;;;;;14.10;9.00;;;;;;;8.09;62.70;97927.93;105593;1260;74373;-25
2024/02/23 02:52:25;;;;;;;11.10;7.30;;;;;;;7.93;63.19;97928.12;105686;1257;72453;-26
2024/02/23 02:54:52;;;;;;;13.50;8.30;;;;;;;7.70;63.85;97924.77;105545;1254;61141;-26
2024/02/23 02:57:19;;;;;;;12.80;7.40;;;;;;;7.53;64.41;97925.01;105327;1260;61208;-26
2024/02/23 02:59:46;;;;;;;10.30;6.70;;;;;;;7.37;65.15;97919.34;105514;1254;72909;-26
2024/02/23 03:02:13;;;;;;;12.20;6.10;;;;;;;7.78;64.26;97928.56;105652;1260;74355;-26
2024/02/23 03:04:50;;;;;;;10.10;6.90;;;;;;;8.11;62.97;97926.02;105647;1256;72515;-26
2024/02/23 03:07:18;;;;;;;11.10;7.50;;;;;;;8.07;62.81;97924.84;105563;1257;61059;-27
2024/02/23 03:09:46;;;;;;;17.50;8.30;;;;;;;7.85;63.49;97923.12;105645;1255;61095;-26
2024/02/23 03:12:13;;;;;;;14.30;8.50;;;;;;;7.64;64.12;97917.91;105561;1254;72957;-26
2024/02/23 03:14:40;;;;;;;14.90;9.40;;;;;;;7.50;64.61;97916.13;105646;1254;74392;-26
2024/02/23 03:17:09;;;;;;;9.00;6.10;;;;;;;7.57;65.02;97912.58;105637;1255;72506;-26
2024/02/23 03:19:37;;;;;;;8.30;5.80;;;;;;;8.14;63.22;97917.66;105729;1255;61186;-26
2024/02/23 03:22:04;;;;;;;13.70;7.00;;;;;;;8.15;62.62;97914.08;105574;1254;61135;-26
2024/02/23 03:24:31;;;;;;;15.50;8.20;;;;;;;8.02;62.98;97914.23;105674;1254;73005;-26
2024/02/23 03:26:59;;;;;;;12.00;7.40;;;;;;;7.83;63.52;97908.33;105604;1259;74781;-26
2024/02/23 03:29:29;;;;;;;11.60;6.30;;;;;;;7.62;64.25;97910.23;105571;1254;72334;-26
2024/02/23 03:31:56;;;;;;;8.90;6.10;;;;;;;7.45;64.75;97909.89;105470;1254;61064;-26
2024/02/23 03:34:23;;;;;;;9.60;6.00;;;;;;;7.73;64.34;97900.02;105509;1260;61131;-27
2024/02/23 03:36:50;;;;;;;13.60;8.20;;;;;;;8.11;62.98;97902.35;105441;1260;73043;-26
2024/02/23 03:39:17;;;;;;;7.50;5.50;;;;;;;8.12;62.57;97907.61;105624;1255;74100;-27
2024/02/23 03:41:44;;;;;;;13.50;7.70;;;;;;;8.06;62.54;97905.06;105647;1255;72629;-27
2024/02/23 03:44:11;;;;;;;11.40;7.30;;;;;;;7.94;62.85;97903.15;105660;1254;60991;-27
2024/02/23 03:46:39;;;;;;;9.20;6.00;;;;;;;7.69;63.69;97902.75;105520;1260;61811;-26
2024/02/23 03:49:06;;;;;;;12.90;7.20;;;;;;;7.40;64.89;97894.41;105508;1255;73449;-27
2024/02/23 03:51:34;;;;;;;9.30;6.20;;;;;;;7.72;64.21;97900.42;105332;1254;74269;-26
2024/02/23 03:54:03;;;;;;;13.40;7.30;;;;;;;8.13;62.75;97899.19;105677;1254;72718;-26
2024/02/23 03:56:30;;;;;;;8.90;5.70;;;;;;;8.05;62.70;97900.15;105622;1259;61143;-27
2024/02/23 03:58:57;;;;;;;10.90;7.20;;;;;;;7.87;63.14;97902.95;105541;1260;61237;-27
2024/02/23 04:01:24;;;;;;;10.30;6.40;;;;;;;7.68;63.64;97908.20;105621;1258;73656;-27
2024/02/23 04:03:51;;;;;;;12.50;7.90;;;;;;;7.51;64.19;97907.06;105671;1260;74311;-27
2024/02/23 04:06:18;;;;;;;10.80;5.30;;;;;;;7.45;64.81;97907.57;105615;1254;72474;-27
2024/02/23 04:08:45;;;;;;;12.10;5.80;;;;;;;7.90;63.52;97914.73;105521;1254;61055;-26
2024/02/23 04:11:16;;;;;;;10.80;5.90;;;;;;;8.11;62.73;97917.56;105506;1261;61147;-26
2024/02/23 04:13:43;;;;;;;9.80;6.10;;;;;;;7.97;62.86;97920.35;105533;1255;73931;-27
2024/02/23 04:16:10;;;;;;;11.60;6.80;;;;;;;7.81;63.24;97921.59;105623;1257;74272;-27
2024/02/23 04:18:38;;;;;;;10.60;6.80;;;;;;;7.65;63.88;97918.35;105663;1259;73034;-27
2024/02/23 04:21:05;;;;;;;9.10;6.40;;;;;;;7.51;64.49;97917.30;105470;1258;61174;-27
2024/02/23 04:23:32;;;;;;;8.60;5.70;;;;;;;7.38;65.17;97915.30;105497;1260;61253;-27
2024/02/23 04:25:59;;;;;;;10.10;6.80;;;;;;;7.79;64.20;97909.02;105512;1254;73824;-26
2024/02/23 04:28:30;;;;;;;11.20;6.40;;;;;;;7.90;63.46;97912.32;105572;1254;74223;-26
2024/02/23 04:30:57;;;;;;;9.00;6.30;;;;;;;7.93;63.24;97912.95;105490;1257;72565;-27
2024/02/23 04:33:24;;;;;;;11.40;7.00;;;;;;;7.66;63.89;97915.78;105530;1260;61045;-27
2024/02/23 04:35:52;;;;;;;11.40;7.10;;;;;;;7.41;64.73;97914.98;105603;1260;61176;-27
2024/02/23 04:38:19;;;;;;;7.50;5.10;;;;;;;7.20;65.51;97921.27;105532;1255;73602;-27
2024/02/23 04:40:46;;;;;;;11.40;6.60;;;;;;;7.56;65.05;97916.48;105529;1255;74192;-27
2024/02/23 04:43:13;;;;;;;9.30;5.70;;;;;;;7.89;63.63;97925.23;105545;1260;72565;-27
2024/02/23 04:45:40;;;;;;;9.90;6.20;;;;;;;7.93;63.19;97926.76;105446;1257;61189;-27
2024/02/23 04:48:07;;;;;;;7.90;5.80;;;;;;;7.78;63.78;97929.98;105579;1260;61131;-27
2024/02/23 04:50:35;;;;;;;10.70;6.30;;;;;;;7.66;64.14;97926.54;105354;1260;73679;-27
2024/02/23 04:53:02;;;;;;;13.20;7.50;;;;;;;7.36;64.80;97924.23;105544;1259;74900;-27
2024/02/23 04:55:29;;;;;;;7.60;5.70;;;;;;;7.25;65.78;97932.63;105661;1255;72602;-27
2024/02/23 04:57:56;;;;;;;10.20;5.90;;;;;;;7.72;64.62;97932.24;105507;1259;61153;-27
2024/02/23 05:00:27;;;;;;;11.70;7.10;;;;;;;8.04;63.24;97937.70;105576;1259;61118;-27
2024/02/23 05:02:54;;;;;;;8.90;5.70;;;;;;;7.93;63.20;97937.64;105664;1255;73801;-27
2024/02/23 05:05:22;;;;;;;11.50;7.80;;;;;;;7.67;63.74;97935.91;105629;1259;74559;-27
2024/02/23 05:07:49;;;;;;;7.30;5.90;;;;;;;7.45;64.73;97939.06;105401;1257;72763;-27
2024/02/23 05:10:17;;;;;;;11.10;7.00;;;;;;;7.36;64.93;97939.10;105587;1255;61075;-27
2024/02/23 05:12:44;;;;;;;9.40;6.20;;;;;;;7.30;65.41;97945.30;105628;1260;61159;-27
2024/02/23 05:15:11;;;;;;;9.00;6.10;;;;;;;7.84;63.87;97946.42;105672;1255;74319;-27
2024/02/23 05:17:38;;;;;;;11.30;6.50;;;;;;;8.07;62.93;97943.48;105670;1259;74468;-27
2024/02/23 05:20:08;;;;;;;10.60;7.10;;;;;;;8.00;62.89;97943.07;105559;1254;72529;-27
2024/02/23 05:22:39;;;;;;;9.60;6.50;;;;;;;7.79;63.43;97948.90;105486;1263;61211;-27
2024/02/23 05:25:07;;;;;;;11.60;7.20;;;;;;;7.49;64.40;97946.27;105621;1262;61110;-27
2024/02/23 05:27:34;;;;;;;7.50;4.20;;;;;;;7.28;65.21;97954.46;105627;1254;73927;-27
2024/02/23 05:30:01;;;;;;;11.90;7.50;;;;;;;7.59;64.68;97955.59;105624;1254;74677;-27
2024/02/23 05:32:28;;;;;;;10.20;5.40;;;;;;;7.90;63.56;97958.13;105661;1254;72676;-26
2024/02/23 05:34:56;;;;;;;9.70;6.00;;;;;;;7.96;63.28;97964.88;105400;1255;61089;-27
2024/02/23 05:37:24;;;;;;;11.10;7.60;;;;;;;7.87;63.50;97964.95;105505;1261;61129;-27
2024/02/23 05:39:52;;;;;;;10.60;6.90;;;;;;;7.61;64.20;97958.89;105609;1255;73740;-26
2024/02/23 05:42:20;;;;;;;10.60;6.50;;;;;;;7.43;64.90;97963.23;105479;1260;74202;-27
2024/02/23 05:44:48;;;;;;;8.90;5.40;;;;;;;7.55;65.24;97965.93;105612;1258;72687;-27
2024/02/23 05:47:15;;;;;;;10.90;6.60;;;;;;;8.12;63.22;97971.75;105708;1265;61136;-26
2024/02/23 05:49:42;;;;;;;10.90;6.90;;;;;;;8.20;62.82;97977.63;105563;1259;61461;-26
2024/02/23 05:52:09;;;;;;;9.10;6.30;;;;;;;8.07;63.14;97972.91;105458;1260;73714;-27
2024/02/23 05:54:36;;;;;;;14.00;7.50;;;;;;;7.85;63.57;97973.73;105493;1258;74057;-27
2024/02/23 05:57:04;;;;;;;8.80;5.60;;;;;;;7.72;64.26;97979.40;105474;1260;72455;-27
2024/02/23 05:59:31;;;;;;;7.80;5.70;;;;;;;7.56;65.00;97978.48;105603;1255;61106;-27
2024/02/23 06:01:59;;;;;;;9.60;6.00;;;;;;;7.79;64.63;97979.46;105706;1254;61165;-27
2024/02/23 06:04:27;;;;;;;12.00;7.00;;;;;;;8.29;62.94;97984.60;105420;1257;73812;-28
2024/02/23 06:06:54;;;;;;;12.30;7.60;;;;;;;8.36;62.16;97986.45;105469;1259;74506;-27
2024/02/23 06:09:22;;;;;;;9.30;6.40;;;;;;;8.27;62.54;97984.46;105571;1254;72478;-27
2024/02/23 06:11:49;;;;;;;10.30;6.60;;;;;;;7.99;63.25;97984.86;105492;1260;61179;-27
2024/02/23 06:14:16;;;;;;;12.00;7.20;;;;;;;7.81;64.10;97978.47;105469;1254;61089;-26
2024/02/23 06:16:44;;;;;;;13.30;7.00;;;;;;;7.66;64.37;97984.41;105506;1254;73792;-25
2024/02/23 06:19:11;;;;;;;11.10;6.70;;;;;;;7.75;64.73;97982.22;105714;1259;75003;-26
2024/02/23 06:21:38;;;;;;;10.30;6.90;;;;;;;8.21;63.35;97988.23;105605;1254;72662;-26
2024/02/23 06:24:07;;;;;;;14.10;7.80;;;;;;;8.28;63.09;97991.62;105625;1256;61150;-25
2024/02/23 06:26:35;;;;;;;11.00;7.00;;;;;;;8.18;63.04;97989.74;105402;1262;61212;-26
2024/02/23 06:29:03;;;;;;;12.30;7.70;;;;;;;7.99;63.55;97993.94;105659;1258;73844;-26
2024/02/23 06:31:30;;;;;;;9.20;6.60;;;;;;;7.83;64.19;97988.92;105559;1260;74301;-26
2024/02/23 06:33:58;;;;;;;9.20;6.60;;;;;;;7.61;65.12;97997.22;105552;1258;72587;-26
2024/02/23 06:36:25;;;;;;;13.30;6.60;;;;;;;7.99;64.56;97998.46;105681;1260;61345;-26
2024/02/23 06:38:53;;;;;;;10.70;6.70;;;;;;;8.37;63.17;97996.20;105687;1256;61772;-26
2024/02/23 06:41:20;;;;;;;9.20;6.90;;;;;;;8.30;62.84;98003.20;105616;1254;75374;-25
2024/02/23 06:43:48;;;;;;;10.10;7.40;;;;;;;8.23;62.97;98003.98;105684;1260;76324;-27
2024/02/23 06:46:15;;;;;;;9.80;7.40;;;;;;;8.10;63.58;98008.58;105592;1260;72426;-26
2024/02/23 06:48:45;;;;;;;8.70;6.20;;;;;;;7.98;64.19;98007.71;105340;1254;61047;-26
2024/02/23 06:51:13;;;;;;;9.70;5.80;;;;;;;7.95;64.32;98013.86;105483;1260;61930;-26
2024/02/23 06:53:40;;;;;;;11.50;7.30;;;;;;;8.17;64.12;98006.45;105598;1259;73839;-26
2024/02/23 06:56:07;;;;;;;12.20;7.40;;;;;;;8.63;62.80;98015.35;105590;1260;74229;-26
2024/02/23 06:58:35;;;;;;;14.60;7.20;;;;;;;8.66;62.34;98016.46;105646;1260;72612;-27
2024/02/23 07:01:05;;;;;;;11.60;7.70;;;;;;;8.56;62.41;98009.75;105644;1260;61415;-26
2024/02/23 07:03:35;;;;;;;17.60;7.70;;;;;;;8.42;62.89;98016.35;105486;1262;61163;-26
2024/02/23 07:06:03;;;;;;;11.90;7.40;;;;;;;8.39;63.11;98024.36;105514;1254;75407;-26
2024/02/23 07:08:31;;;;;;;12.80;7.30;;;;;;;8.20;63.56;98025.20;105479;1260;75713;-26
2024/02/23 07:10:58;;;;;;;10.60;7.00;;;;;;;8.31;63.49;98029.92;105539;1260;74379;-26
2024/02/23 07:13:26;;;;;;;10.90;6.80;;;;;;;8.78;62.24;98038.48;105655;1257;62239;-26
2024/02/23 07:15:55;;;;;;;11.20;6.50;;;;;;;8.98;61.61;98038.04;105601;1267;61887;-26
2024/02/23 07:18:23;;;;;;;11.20;6.90;;;;;;;8.82;61.83;98033.77;105507;1260;73632;-26
2024/02/23 07:20:50;;;;;;;11.70;7.10;;;;;;;8.68;62.03;98040.21;105580;1259;75747;-26
2024/02/23 07:23:18;;;;;;;10.80;7.50;;;;;;;8.61;62.26;98036.85;105652;1269;74425;-26
2024/02/23 07:25:45;;;;;;;13.50;8.40;;;;;;;8.27;63.29;98039.94;105709;1255;61093;-26
2024/02/23 07:28:12;;;;;;;8.30;5.70;;;;;;;8.14;64.01;98043.16;105596;1260;61086;-27
2024/02/23 07:30:39;;;;;;;10.40;6.00;;;;;;;8.81;62.19;98054.09;105489;1259;75645;-26
2024/02/23 07:33:07;;;;;;;12.90;7.30;;;;;;;9.05;61.54;98050.55;105519;1258;76043;-26
2024/02/23 07:35:35;;;;;;;14.10;7.00;;;;;;;8.99;61.44;98049.06;105648;1259;72765;-26
2024/02/23 07:38:02;;;;;;;9.70;6.50;;;;;;;8.74;61.97;98050.02;105500;1255;61150;-26
2024/02/23 07:40:31;;;;;;;12.90;7.00;;;;;;;8.61;62.40;98049.27;105623;1260;62141;-26
2024/02/23 07:42:59;;;;;;;12.60;8.80;;;;;;;8.41;62.86;98048.06;105685;1260;75462;-26
2024/02/23 07:45:26;;;;;;;11.30;7.60;;;;;;;8.06;63.91;98045.59;105672;1259;74929;-25
2024/02/23 07:47:55;;;;;;;11.90;6.70;;;;;;;8.37;63.77;98047.95;105664;1259;73853;-26
2024/02/23 07:50:22;;;;;;;11.20;7.60;;;;;;;8.79;62.46;98050.30;105627;1260;62204;-26
2024/02/23 07:52:50;;;;;;;13.40;8.40;;;;;;;8.74;62.16;98046.06;105655;1260;61730;-26
2024/02/23 07:55:17;;;;;;;11.70;7.40;;;;;;;8.73;62.55;98053.08;105678;1267;75359;-26
2024/02/23 07:57:45;;;;;;;12.60;8.30;;;;;;;8.55;62.65;98050.18;105617;1260;75462;-26
2024/02/23 08:00:12;;;;;;;13.70;7.20;;;;;;;8.43;63.03;98049.92;105469;1261;74300;-26
2024/02/23 08:02:40;;;;;;;10.80;7.10;;;;;;;8.32;63.79;98046.48;105514;1260;61048;-26
2024/02/23 08:05:09;;;;;;;12.10;7.10;;;;;;;8.77;63.11;98047.07;105616;1255;61967;-25
2024/02/23 08:07:37;;;;;;;10.90;6.10;;;;;;;9.18;61.80;98048.34;105631;1260;75449;-26
2024/02/23 08:10:05;;;;;;;12.70;7.50;;;;;;;9.17;61.19;98050.67;105653;1260;75812;-26
2024/02/23 08:12:33;;;;;;;11.60;6.80;;;;;;;8.97;61.84;98047.80;105583;1260;73256;-26
2024/02/23 08:15:02;;;;;;;14.50;7.00;;;;;;;8.86;62.17;98047.21;105324;1266;61895;-26
2024/02/23 08:17:30;;;;;;;14.60;8.40;;;;;;;8.86;62.50;98056.23;105484;1260;62143;-26
2024/02/23 08:19:58;;;;;;;10.20;6.60;;;;;;;8.77;62.60;98059.09;105341;1254;75167;-26
2024/02/23 08:22:25;;;;;;;11.50;7.50;;;;;;;9.01;62.53;98054.36;105626;1259;76065;-26
2024/02/23 08:24:53;;;;;;;10.50;5.90;;;;;;;9.42;60.94;98055.15;105602;1260;74308;-26
2024/02/23 08:27:20;;;;;;;15.10;7.90;;;;;;;9.63;60.18;98054.06;105657;1254;61821;-26
2024/02/23 08:29:48;;;;;;;9.70;6.00;;;;;;;9.64;60.19;98050.37;105678;1260;61948;-26
